sensor_id;sensor_type;location;lat;lon;timestamp;pressure;altitude;pressure_sealevel;temperature;humidity
56568;BME280;42456;49.956;20.004;2023-02-12T00:00:50;99507.40;;;3.52;87.25
56568;BME280;42456;49.956;20.004;2023-02-12T00:03:17;99507.40;;;3.53;87.32
56568;BME280;42456;49.956;20.004;2023-02-12T00:05:44;99508.04;;;3.53;87.53
56568;BME280;42456;49.956;20.004;2023-02-12T00:08:11;99506.13;;;3.53;87.12
56568;BME280;42456;49.956;20.004;2023-02-12T00:10:41;99510.59;;;3.53;87.10
56568;BME280;42456;49.956;20.004;2023-02-12T00:13:10;99517.77;;;3.53;87.42
56568;BME280;42456;49.956;20.004;2023-02-12T00:15:39;99516.23;;;3.54;87.31
56568;BME280;42456;49.956;20.004;2023-02-12T00:18:07;99516.20;;;3.54;87.52
56568;BME280;42456;49.956;20.004;2023-02-12T00:20:36;99508.33;;;3.55;87.58
56568;BME280;42456;49.956;20.004;2023-02-12T00:23:04;99509.82;;;3.55;87.45
56568;BME280;42456;49.956;20.004;2023-02-12T00:25:32;99506.90;;;3.56;87.64
56568;BME280;42456;49.956;20.004;2023-02-12T00:27:59;99514.05;;;3.57;87.58
56568;BME280;42456;49.956;20.004;2023-02-12T00:30:26;99511.96;;;3.57;87.79
56568;BME280;42456;49.956;20.004;2023-02-12T00:32:53;99513.09;;;3.58;87.53
56568;BME280;42456;49.956;20.004;2023-02-12T00:35:20;99515.96;;;3.59;87.47
56568;BME280;42456;49.956;20.004;2023-02-12T00:37:47;99521.30;;;3.60;87.81
56568;BME280;42456;49.956;20.004;2023-02-12T00:40:13;99530.04;;;3.62;87.60
56568;BME280;42456;49.956;20.004;2023-02-12T00:42:40;99528.25;;;3.63;87.68
56568;BME280;42456;49.956;20.004;2023-02-12T00:45:07;99524.21;;;3.65;87.33
56568;BME280;42456;49.956;20.004;2023-02-12T00:47:34;99521.09;;;3.66;87.42
56568;BME280;42456;49.956;20.004;2023-02-12T00:50:01;99523.45;;;3.68;87.21
56568;BME280;42456;49.956;20.004;2023-02-12T00:52:28;99519.90;;;3.70;87.70
56568;BME280;42456;49.956;20.004;2023-02-12T00:54:55;99524.70;;;3.72;87.11
56568;BME280;42456;49.956;20.004;2023-02-12T00:57:22;99524.77;;;3.74;87.46
56568;BME280;42456;49.956;20.004;2023-02-12T00:59:49;99528.70;;;3.74;87.28
56568;BME280;42456;49.956;20.004;2023-02-12T01:02:15;99528.33;;;3.74;87.42
56568;BME280;42456;49.956;20.004;2023-02-12T01:04:43;99532.80;;;3.74;87.33
56568;BME280;42456;49.956;20.004;2023-02-12T01:07:10;99532.00;;;3.73;87.22
56568;BME280;42456;49.956;20.004;2023-02-12T01:09:37;99532.09;;;3.72;87.33
56568;BME280;42456;49.956;20.004;2023-02-12T01:12:04;99537.23;;;3.69;87.57
56568;BME280;42456;49.956;20.004;2023-02-12T01:14:31;99542.27;;;3.68;87.62
56568;BME280;42456;49.956;20.004;2023-02-12T01:16:58;99537.16;;;3.67;87.39
56568;BME280;42456;49.956;20.004;2023-02-12T01:19:25;99539.01;;;3.66;87.52
56568;BME280;42456;49.956;20.004;2023-02-12T01:21:53;99538.75;;;3.67;87.51
56568;BME280;42456;49.956;20.004;2023-02-12T01:24:20;99540.03;;;3.67;87.64
56568;BME280;42456;49.956;20.004;2023-02-12T01:26:47;99544.55;;;3.67;87.65
56568;BME280;42456;49.956;20.004;2023-02-12T01:29:13;99546.90;;;3.68;87.51
56568;BME280;42456;49.956;20.004;2023-02-12T01:31:40;99547.83;;;3.70;87.84
56568;BME280;42456;49.956;20.004;2023-02-12T01:34:09;99544.54;;;3.71;87.51
56568;BME280;42456;49.956;20.004;2023-02-12T01:36:36;99545.72;;;3.73;88.25
56568;BME280;42456;49.956;20.004;2023-02-12T01:39:04;99545.47;;;3.74;87.20
56568;BME280;42456;49.956;20.004;2023-02-12T01:41:38;99551.60;;;3.76;87.89
56568;BME280;42456;49.956;20.004;2023-02-12T01:44:13;99552.93;;;3.76;87.60
56568;BME280;42456;49.956;20.004;2023-02-12T01:46:42;99557.36;;;3.77;87.36
56568;BME280;42456;49.956;20.004;2023-02-12T01:49:20;99559.34;;;3.78;87.87
56568;BME280;42456;49.956;20.004;2023-02-12T01:51:50;99561.21;;;3.79;87.60
56568;BME280;42456;49.956;20.004;2023-02-12T01:54:20;99566.38;;;3.80;87.82
56568;BME280;42456;49.956;20.004;2023-02-12T01:56:48;99573.84;;;3.82;87.77
56568;BME280;42456;49.956;20.004;2023-02-12T01:59:15;99569.17;;;3.83;87.93
56568;BME280;42456;49.956;20.004;2023-02-12T02:01:43;99565.52;;;3.85;87.61
56568;BME280;42456;49.956;20.004;2023-02-12T02:04:18;99566.00;;;3.86;87.28
56568;BME280;42456;49.956;20.004;2023-02-12T02:06:53;99576.75;;;3.85;87.71
56568;BME280;42456;49.956;20.004;2023-02-12T02:09:23;99580.73;;;3.86;87.26
56568;BME280;42456;49.956;20.004;2023-02-12T02:11:50;99584.89;;;3.86;87.30
56568;BME280;42456;49.956;20.004;2023-02-12T02:14:31;99585.09;;;3.84;87.51
56568;BME280;42456;49.956;20.004;2023-02-12T02:36:43;99630.36;;;3.82;87.71
56568;BME280;42456;49.956;20.004;2023-02-12T02:41:58;99636.99;;;3.85;87.76
56568;BME280;42456;49.956;20.004;2023-02-12T02:44:35;99638.23;;;3.86;87.91
56568;BME280;42456;49.956;20.004;2023-02-12T02:47:06;99638.88;;;3.87;87.56
56568;BME280;42456;49.956;20.004;2023-02-12T02:49:49;99646.98;;;3.89;87.33
56568;BME280;42456;49.956;20.004;2023-02-12T02:52:23;99650.94;;;3.91;87.93
56568;BME280;42456;49.956;20.004;2023-02-12T02:54:55;99645.77;;;3.91;87.44
56568;BME280;42456;49.956;20.004;2023-02-12T02:57:26;99650.77;;;3.91;87.82
56568;BME280;42456;49.956;20.004;2023-02-12T03:00:00;99654.23;;;3.91;87.99
56568;BME280;42456;49.956;20.004;2023-02-12T03:02:35;99656.36;;;3.90;87.24
56568;BME280;42456;49.956;20.004;2023-02-12T03:05:09;99656.93;;;3.88;87.44
56568;BME280;42456;49.956;20.004;2023-02-12T03:07:48;99670.10;;;3.85;87.77
56568;BME280;42456;49.956;20.004;2023-02-12T03:10:27;99678.70;;;3.84;87.92
56568;BME280;42456;49.956;20.004;2023-02-12T03:15:50;99690.48;;;3.80;87.77
56568;BME280;42456;49.956;20.004;2023-02-12T03:18:32;99687.29;;;3.79;87.96
56568;BME280;42456;49.956;20.004;2023-02-12T03:21:05;99692.33;;;3.78;88.24
56568;BME280;42456;49.956;20.004;2023-02-12T03:23:41;99696.95;;;3.79;88.19
56568;BME280;42456;49.956;20.004;2023-02-12T03:26:17;99698.98;;;3.78;88.59
56568;BME280;42456;49.956;20.004;2023-02-12T03:28:47;99704.70;;;3.77;87.83
56568;BME280;42456;49.956;20.004;2023-02-12T03:31:29;99716.19;;;3.76;88.05
56568;BME280;42456;49.956;20.004;2023-02-12T03:36:54;99708.73;;;3.75;87.85
56568;BME280;42456;49.956;20.004;2023-02-12T03:42:20;99721.32;;;3.74;88.43
56568;BME280;42456;49.956;20.004;2023-02-12T03:44:56;99728.13;;;3.74;88.10
56568;BME280;42456;49.956;20.004;2023-02-12T03:47:37;99732.17;;;3.73;88.07
56568;BME280;42456;49.956;20.004;2023-02-12T03:50:15;99736.11;;;3.72;87.98
56568;BME280;42456;49.956;20.004;2023-02-12T03:52:44;99741.27;;;3.73;88.05
56568;BME280;42456;49.956;20.004;2023-02-12T03:55:14;99747.77;;;3.73;88.13
56568;BME280;42456;49.956;20.004;2023-02-12T03:57:48;99752.20;;;3.74;87.68
56568;BME280;42456;49.956;20.004;2023-02-12T04:00:20;99753.64;;;3.74;88.14
56568;BME280;42456;49.956;20.004;2023-02-12T04:02:47;99759.29;;;3.75;87.94
56568;BME280;42456;49.956;20.004;2023-02-12T04:05:20;99766.22;;;3.76;87.91
56568;BME280;42456;49.956;20.004;2023-02-12T04:07:49;99770.80;;;3.76;87.62
56568;BME280;42456;49.956;20.004;2023-02-12T04:10:17;99774.20;;;3.76;87.99
56568;BME280;42456;49.956;20.004;2023-02-12T04:12:56;99778.59;;;3.74;87.81
56568;BME280;42456;49.956;20.004;2023-02-12T04:18:46;99780.35;;;3.70;87.88
56568;BME280;42456;49.956;20.004;2023-02-12T04:23:55;99789.95;;;3.64;87.38
56568;BME280;42456;49.956;20.004;2023-02-12T04:31:59;99796.86;;;3.59;88.06
56568;BME280;42456;49.956;20.004;2023-02-12T04:37:20;99807.35;;;3.56;87.72
56568;BME280;42456;49.956;20.004;2023-02-12T04:39:50;99814.90;;;3.56;87.86
56568;BME280;42456;49.956;20.004;2023-02-12T04:42:19;99816.02;;;3.56;87.89
56568;BME280;42456;49.956;20.004;2023-02-12T04:44:46;99818.46;;;3.56;87.99
56568;BME280;42456;49.956;20.004;2023-02-12T04:47:14;99822.94;;;3.52;87.32
56568;BME280;42456;49.956;20.004;2023-02-12T04:49:41;99832.16;;;3.50;87.46
56568;BME280;42456;49.956;20.004;2023-02-12T04:52:08;99836.36;;;3.49;87.65
56568;BME280;42456;49.956;20.004;2023-02-12T04:54:36;99838.27;;;3.49;88.15
56568;BME280;42456;49.956;20.004;2023-02-12T04:57:03;99842.99;;;3.48;87.57
56568;BME280;42456;49.956;20.004;2023-02-12T04:59:30;99844.60;;;3.46;87.62
56568;BME280;42456;49.956;20.004;2023-02-12T05:01:57;99845.77;;;3.45;88.08
56568;BME280;42456;49.956;20.004;2023-02-12T05:04:24;99856.24;;;3.45;87.69
56568;BME280;42456;49.956;20.004;2023-02-12T05:06:50;99862.98;;;3.44;87.80
56568;BME280;42456;49.956;20.004;2023-02-12T05:09:18;99870.13;;;3.41;87.54
56568;BME280;42456;49.956;20.004;2023-02-12T05:11:45;99877.70;;;3.39;87.99
56568;BME280;42456;49.956;20.004;2023-02-12T05:14:12;99885.29;;;3.38;88.04
56568;BME280;42456;49.956;20.004;2023-02-12T05:16:39;99893.63;;;3.34;87.65
56568;BME280;42456;49.956;20.004;2023-02-12T05:19:07;99896.25;;;3.29;87.67
56568;BME280;42456;49.956;20.004;2023-02-12T05:21:36;99899.58;;;3.25;88.00
56568;BME280;42456;49.956;20.004;2023-02-12T05:24:03;99900.70;;;3.21;87.73
56568;BME280;42456;49.956;20.004;2023-02-12T05:26:30;99901.23;;;3.18;87.20
56568;BME280;42456;49.956;20.004;2023-02-12T05:28:57;99903.02;;;3.14;87.11
56568;BME280;42456;49.956;20.004;2023-02-12T05:31:24;99904.15;;;3.12;87.14
56568;BME280;42456;49.956;20.004;2023-02-12T05:33:51;99913.77;;;3.08;86.73
56568;BME280;42456;49.956;20.004;2023-02-12T05:36:20;99920.55;;;3.03;87.12
56568;BME280;42456;49.956;20.004;2023-02-12T05:38:51;99922.77;;;2.99;87.32
56568;BME280;42456;49.956;20.004;2023-02-12T05:41:21;99929.87;;;2.96;86.51
56568;BME280;42456;49.956;20.004;2023-02-12T05:43:48;99934.55;;;2.93;86.23
56568;BME280;42456;49.956;20.004;2023-02-12T05:46:17;99937.48;;;2.90;86.24
56568;BME280;42456;49.956;20.004;2023-02-12T05:48:44;99933.96;;;2.87;86.27
56568;BME280;42456;49.956;20.004;2023-02-12T05:51:14;99940.37;;;2.86;86.01
56568;BME280;42456;49.956;20.004;2023-02-12T05:53:41;99948.77;;;2.83;85.80
56568;BME280;42456;49.956;20.004;2023-02-12T05:56:22;99948.56;;;2.81;85.93
56568;BME280;42456;49.956;20.004;2023-02-12T05:58:57;99953.52;;;2.79;85.76
56568;BME280;42456;49.956;20.004;2023-02-12T06:01:28;99957.71;;;2.76;85.64
56568;BME280;42456;49.956;20.004;2023-02-12T06:03:57;99965.43;;;2.74;85.74
56568;BME280;42456;49.956;20.004;2023-02-12T06:06:25;99967.41;;;2.71;85.38
56568;BME280;42456;49.956;20.004;2023-02-12T06:08:53;99969.54;;;2.69;85.35
56568;BME280;42456;49.956;20.004;2023-02-12T06:11:20;99967.94;;;2.66;85.42
56568;BME280;42456;49.956;20.004;2023-02-12T06:13:47;99972.98;;;2.63;85.01
56568;BME280;42456;49.956;20.004;2023-02-12T06:16:19;99975.39;;;2.61;85.19
56568;BME280;42456;49.956;20.004;2023-02-12T06:18:50;99981.92;;;2.58;85.06
56568;BME280;42456;49.956;20.004;2023-02-12T06:21:20;99990.86;;;2.56;85.25
56568;BME280;42456;49.956;20.004;2023-02-12T06:23:48;99993.38;;;2.55;85.42
56568;BME280;42456;49.956;20.004;2023-02-12T06:26:15;99995.16;;;2.54;85.25
56568;BME280;42456;49.956;20.004;2023-02-12T06:28:43;100001.40;;;2.52;84.72
56568;BME280;42456;49.956;20.004;2023-02-12T06:31:24;100008.63;;;2.50;85.10
56568;BME280;42456;49.956;20.004;2023-02-12T06:33:53;100012.44;;;2.46;84.37
56568;BME280;42456;49.956;20.004;2023-02-12T06:36:20;100010.15;;;2.41;84.32
56568;BME280;42456;49.956;20.004;2023-02-12T06:38:48;100014.44;;;2.38;84.52
56568;BME280;42456;49.956;20.004;2023-02-12T06:41:15;100016.25;;;2.37;84.81
56568;BME280;42456;49.956;20.004;2023-02-12T06:43:43;100024.34;;;2.37;84.95
56568;BME280;42456;49.956;20.004;2023-02-12T06:46:10;100025.16;;;2.36;84.58
56568;BME280;42456;49.956;20.004;2023-02-12T06:48:37;100030.50;;;2.35;84.69
56568;BME280;42456;49.956;20.004;2023-02-12T06:51:07;100028.96;;;2.34;84.45
56568;BME280;42456;49.956;20.004;2023-02-12T06:53:34;100031.48;;;2.36;84.69
56568;BME280;42456;49.956;20.004;2023-02-12T06:56:05;100034.93;;;2.36;84.28
56568;BME280;42456;49.956;20.004;2023-02-12T06:58:41;100032.58;;;2.35;84.29
56568;BME280;42456;49.956;20.004;2023-02-12T07:03:40;100033.66;;;2.29;84.57
56568;BME280;42456;49.956;20.004;2023-02-12T07:06:07;100033.14;;;2.27;84.35
56568;BME280;42456;49.956;20.004;2023-02-12T07:08:35;100042.79;;;2.26;84.57
56568;BME280;42456;49.956;20.004;2023-02-12T07:11:04;100044.96;;;2.28;84.59
56568;BME280;42456;49.956;20.004;2023-02-12T07:13:31;100058.27;;;2.33;84.62
56568;BME280;42456;49.956;20.004;2023-02-12T07:16:08;100056.84;;;2.35;84.71
56568;BME280;42456;49.956;20.004;2023-02-12T07:18:36;100062.34;;;2.38;84.43
56568;BME280;42456;49.956;20.004;2023-02-12T07:21:05;100066.86;;;2.39;84.45
56568;BME280;42456;49.956;20.004;2023-02-12T07:23:33;100066.23;;;2.40;84.30
56568;BME280;42456;49.956;20.004;2023-02-12T07:26:03;100071.31;;;2.43;84.47
56568;BME280;42456;49.956;20.004;2023-02-12T07:28:30;100071.73;;;2.48;84.17
56568;BME280;42456;49.956;20.004;2023-02-12T07:33:35;100079.90;;;2.50;83.61
56568;BME280;42456;49.956;20.004;2023-02-12T07:36:04;100083.31;;;2.43;83.10
56568;BME280;42456;49.956;20.004;2023-02-12T07:38:31;100084.45;;;2.37;83.07
56568;BME280;42456;49.956;20.004;2023-02-12T07:43:43;100098.04;;;2.21;83.17
56568;BME280;42456;49.956;20.004;2023-02-12T07:46:16;100104.09;;;2.11;82.33
56568;BME280;42456;49.956;20.004;2023-02-12T07:48:45;100102.34;;;2.04;82.98
56568;BME280;42456;49.956;20.004;2023-02-12T07:51:15;100099.88;;;2.00;83.50
56568;BME280;42456;49.956;20.004;2023-02-12T07:53:42;100102.05;;;2.01;83.51
56568;BME280;42456;49.956;20.004;2023-02-12T07:56:12;100107.98;;;2.02;83.39
56568;BME280;42456;49.956;20.004;2023-02-12T07:58:40;100114.00;;;2.00;82.65
56568;BME280;42456;49.956;20.004;2023-02-12T08:01:23;100113.55;;;1.95;82.16
56568;BME280;42456;49.956;20.004;2023-02-12T08:03:51;100124.66;;;1.91;82.02
56568;BME280;42456;49.956;20.004;2023-02-12T08:06:20;100125.36;;;1.88;82.06
56568;BME280;42456;49.956;20.004;2023-02-12T08:08:53;100127.83;;;1.87;81.65
56568;BME280;42456;49.956;20.004;2023-02-12T08:11:21;100136.30;;;1.86;81.10
56568;BME280;42456;49.956;20.004;2023-02-12T08:13:48;100134.61;;;1.86;81.63
56568;BME280;42456;49.956;20.004;2023-02-12T08:16:17;100129.12;;;1.87;81.65
56568;BME280;42456;49.956;20.004;2023-02-12T08:18:45;100131.07;;;1.91;81.93
56568;BME280;42456;49.956;20.004;2023-02-12T08:21:15;100127.70;;;1.95;81.64
56568;BME280;42456;49.956;20.004;2023-02-12T08:23:44;100131.08;;;1.96;80.97
56568;BME280;42456;49.956;20.004;2023-02-12T08:26:13;100129.22;;;1.96;80.75
56568;BME280;42456;49.956;20.004;2023-02-12T08:28:45;100136.84;;;1.95;80.24
56568;BME280;42456;49.956;20.004;2023-02-12T08:31:15;100136.14;;;1.92;79.92
56568;BME280;42456;49.956;20.004;2023-02-12T08:33:47;100136.48;;;1.90;79.90
56568;BME280;42456;49.956;20.004;2023-02-12T08:36:16;100132.64;;;1.88;79.81
56568;BME280;42456;49.956;20.004;2023-02-12T08:38:44;100136.00;;;1.89;79.81
56568;BME280;42456;49.956;20.004;2023-02-12T08:41:17;100145.23;;;1.91;79.85
56568;BME280;42456;49.956;20.004;2023-02-12T08:43:47;100145.88;;;1.89;79.67
56568;BME280;42456;49.956;20.004;2023-02-12T08:46:17;100151.25;;;1.87;78.94
56568;BME280;42456;49.956;20.004;2023-02-12T08:48:45;100156.04;;;1.86;78.80
56568;BME280;42456;49.956;20.004;2023-02-12T08:51:17;100154.81;;;1.90;79.41
56568;BME280;42456;49.956;20.004;2023-02-12T08:53:50;100153.80;;;1.94;78.93
56568;BME280;42456;49.956;20.004;2023-02-12T08:56:17;100151.11;;;1.99;78.76
56568;BME280;42456;49.956;20.004;2023-02-12T08:58:45;100160.21;;;2.05;78.51
56568;BME280;42456;49.956;20.004;2023-02-12T09:01:17;100166.70;;;2.11;78.64
56568;BME280;42456;49.956;20.004;2023-02-12T09:03:45;100172.86;;;2.18;78.54
56568;BME280;42456;49.956;20.004;2023-02-12T09:06:14;100176.02;;;2.23;78.49
56568;BME280;42456;49.956;20.004;2023-02-12T09:08:41;100179.89;;;2.26;78.20
56568;BME280;42456;49.956;20.004;2023-02-12T09:11:19;100184.54;;;2.26;77.78
56568;BME280;42456;49.956;20.004;2023-02-12T09:13:49;100195.23;;;2.25;77.03
56568;BME280;42456;49.956;20.004;2023-02-12T09:16:16;100205.23;;;2.22;77.05
56568;BME280;42456;49.956;20.004;2023-02-12T09:18:43;100202.27;;;2.20;77.08
56568;BME280;42456;49.956;20.004;2023-02-12T09:21:13;100204.70;;;2.22;76.90
56568;BME280;42456;49.956;20.004;2023-02-12T09:23:43;100210.30;;;2.25;76.72
56568;BME280;42456;49.956;20.004;2023-02-12T09:26:12;100216.42;;;2.27;76.74
56568;BME280;42456;49.956;20.004;2023-02-12T09:28:41;100220.05;;;2.28;76.38
56568;BME280;42456;49.956;20.004;2023-02-12T09:31:11;100225.61;;;2.27;75.93
56568;BME280;42456;49.956;20.004;2023-02-12T09:33:39;100228.09;;;2.25;75.74
56568;BME280;42456;49.956;20.004;2023-02-12T09:36:11;100225.58;;;2.20;75.77
56568;BME280;42456;49.956;20.004;2023-02-12T09:38:38;100220.24;;;2.21;75.79
56568;BME280;42456;49.956;20.004;2023-02-12T09:41:19;100222.89;;;2.21;75.68
56568;BME280;42456;49.956;20.004;2023-02-12T09:46:29;100226.63;;;2.19;75.29
56568;BME280;42456;49.956;20.004;2023-02-12T09:51:34;100231.13;;;2.30;75.56
56568;BME280;42456;49.956;20.004;2023-02-12T09:54:11;100231.13;;;2.33;74.97
56568;BME280;42456;49.956;20.004;2023-02-12T09:56:43;100228.48;;;2.38;75.12
56568;BME280;42456;49.956;20.004;2023-02-12T09:59:19;100231.65;;;2.44;74.74
56568;BME280;42456;49.956;20.004;2023-02-12T10:01:51;100225.40;;;2.46;74.37
56568;BME280;42456;49.956;20.004;2023-02-12T10:04:17;100220.30;;;2.55;75.21
56568;BME280;42456;49.956;20.004;2023-02-12T10:06:52;100224.29;;;2.65;74.53
56568;BME280;42456;49.956;20.004;2023-02-12T10:09:44;100224.63;;;2.67;74.09
56568;BME280;42456;49.956;20.004;2023-02-12T10:12:22;100222.15;;;2.71;73.70
56568;BME280;42456;49.956;20.004;2023-02-12T10:20:06;100232.95;;;2.94;74.06
56568;BME280;42456;49.956;20.004;2023-02-12T10:22:57;100232.55;;;3.00;73.40
56568;BME280;42456;49.956;20.004;2023-02-12T10:25:37;100231.59;;;3.05;73.15
56568;BME280;42456;49.956;20.004;2023-02-12T10:28:19;100231.67;;;3.10;73.20
56568;BME280;42456;49.956;20.004;2023-02-12T10:31:11;100236.27;;;3.14;72.87
56568;BME280;42456;49.956;20.004;2023-02-12T10:33:48;100239.73;;;3.19;73.16
56568;BME280;42456;49.956;20.004;2023-02-12T10:44:22;100233.38;;;3.32;71.96
56568;BME280;42456;49.956;20.004;2023-02-12T10:46:49;100233.84;;;3.32;71.73
56568;BME280;42456;49.956;20.004;2023-02-12T10:49:17;100231.53;;;3.26;71.22
56568;BME280;42456;49.956;20.004;2023-02-12T10:52:09;100230.81;;;3.25;71.67
56568;BME280;42456;49.956;20.004;2023-02-12T10:54:43;100236.67;;;3.30;71.92
56568;BME280;42456;49.956;20.004;2023-02-12T10:59:44;100237.31;;;3.50;72.45
56568;BME280;42456;49.956;20.004;2023-02-12T11:02:21;100236.45;;;3.63;72.67
56568;BME280;42456;49.956;20.004;2023-02-12T11:04:49;100231.96;;;3.77;72.97
56568;BME280;42456;49.956;20.004;2023-02-12T11:07:17;100232.05;;;3.88;72.60
56568;BME280;42456;49.956;20.004;2023-02-12T11:09:46;100228.61;;;3.95;72.10
56568;BME280;42456;49.956;20.004;2023-02-12T11:14:53;100229.13;;;3.82;70.44
56568;BME280;42456;49.956;20.004;2023-02-12T11:17:24;100227.79;;;3.77;69.99
56568;BME280;42456;49.956;20.004;2023-02-12T11:20:26;100223.56;;;3.81;70.75
56568;BME280;42456;49.956;20.004;2023-02-12T11:25:25;100223.19;;;4.01;71.41
56568;BME280;42456;49.956;20.004;2023-02-12T11:27:59;100226.84;;;4.11;71.31
56568;BME280;42456;49.956;20.004;2023-02-12T11:30:28;100226.52;;;4.22;70.94
56568;BME280;42456;49.956;20.004;2023-02-12T11:33:15;100227.26;;;4.32;71.85
56568;BME280;42456;49.956;20.004;2023-02-12T11:35:49;100225.39;;;4.40;71.13
56568;BME280;42456;49.956;20.004;2023-02-12T11:38:23;100228.34;;;4.42;70.63
56568;BME280;42456;49.956;20.004;2023-02-12T11:40:55;100235.35;;;4.45;70.48
56568;BME280;42456;49.956;20.004;2023-02-12T11:43:23;100234.46;;;4.45;69.96
56568;BME280;42456;49.956;20.004;2023-02-12T11:45:53;100234.84;;;4.42;69.10
56568;BME280;42456;49.956;20.004;2023-02-12T11:48:34;100235.11;;;4.48;69.51
56568;BME280;42456;49.956;20.004;2023-02-12T11:51:06;100228.86;;;4.61;70.83
56568;BME280;42456;49.956;20.004;2023-02-12T11:53:39;100228.12;;;4.74;70.22
56568;BME280;42456;49.956;20.004;2023-02-12T11:56:10;100227.89;;;4.88;70.60
56568;BME280;42456;49.956;20.004;2023-02-12T11:58:38;100223.26;;;5.02;70.71
56568;BME280;42456;49.956;20.004;2023-02-12T12:01:19;100220.80;;;5.13;70.09
56568;BME280;42456;49.956;20.004;2023-02-12T12:14:31;100217.09;;;5.44;68.03
56568;BME280;42456;49.956;20.004;2023-02-12T12:17:25;100215.41;;;5.29;67.87
56568;BME280;42456;49.956;20.004;2023-02-12T12:20:15;100220.48;;;5.24;68.16
56568;BME280;42456;49.956;20.004;2023-02-12T12:22:51;100219.68;;;5.26;68.69
56568;BME280;42456;49.956;20.004;2023-02-12T12:25:26;100215.50;;;5.28;68.06
56568;BME280;42456;49.956;20.004;2023-02-12T12:28:04;100212.18;;;5.30;68.25
56568;BME280;42456;49.956;20.004;2023-02-12T12:33:21;100201.73;;;5.43;68.67
56568;BME280;42456;49.956;20.004;2023-02-12T12:36:11;100204.27;;;5.46;68.43
56568;BME280;42456;49.956;20.004;2023-02-12T12:41:49;100200.04;;;5.45;68.28
56568;BME280;42456;49.956;20.004;2023-02-12T12:44:25;100203.58;;;5.43;68.08
56568;BME280;42456;49.956;20.004;2023-02-12T12:47:08;100205.07;;;5.42;68.33
56568;BME280;42456;49.956;20.004;2023-02-12T12:58:32;100198.79;;;5.47;67.42
56568;BME280;42456;49.956;20.004;2023-02-12T13:17:46;100202.46;;;5.39;67.60
56568;BME280;42456;49.956;20.004;2023-02-12T13:20:29;100206.19;;;5.42;67.72
56568;BME280;42456;49.956;20.004;2023-02-12T13:23:13;100212.74;;;5.45;67.84
56568;BME280;42456;49.956;20.004;2023-02-12T13:31:29;100226.84;;;5.59;67.21
56568;BME280;42456;49.956;20.004;2023-02-12T13:34:06;100223.78;;;5.62;67.47
56568;BME280;42456;49.956;20.004;2023-02-12T13:36:37;100227.55;;;5.64;67.19
56568;BME280;42456;49.956;20.004;2023-02-12T13:41:46;100228.10;;;5.65;67.06
56568;BME280;42456;49.956;20.004;2023-02-12T13:44:23;100228.70;;;5.63;66.72
56568;BME280;42456;49.956;20.004;2023-02-12T13:52:26;100233.55;;;5.53;66.83
56568;BME280;42456;49.956;20.004;2023-02-12T13:55:30;100231.86;;;5.50;66.81
56568;BME280;42456;49.956;20.004;2023-02-12T14:01:01;100222.27;;;5.39;66.69
56568;BME280;42456;49.956;20.004;2023-02-12T14:03:30;100221.77;;;5.34;66.92
56568;BME280;42456;49.956;20.004;2023-02-12T14:06:12;100218.17;;;5.32;67.17
56568;BME280;42456;49.956;20.004;2023-02-12T14:08:44;100224.02;;;5.31;67.22
56568;BME280;42456;49.956;20.004;2023-02-12T14:11:16;100227.31;;;5.29;66.24
56568;BME280;42456;49.956;20.004;2023-02-12T14:13:54;100223.34;;;5.28;66.59
56568;BME280;42456;49.956;20.004;2023-02-12T14:21:53;100227.71;;;5.28;66.42
56568;BME280;42456;49.956;20.004;2023-02-12T14:27:06;100227.95;;;5.25;67.03
56568;BME280;42456;49.956;20.004;2023-02-12T14:37:57;100226.91;;;5.14;66.42
56568;BME280;42456;49.956;20.004;2023-02-12T14:45:50;100221.94;;;5.02;65.68
56568;BME280;42456;49.956;20.004;2023-02-12T14:54:04;100227.89;;;4.83;65.73
56568;BME280;42456;49.956;20.004;2023-02-12T14:56:45;100228.62;;;4.75;65.68
56568;BME280;42456;49.956;20.004;2023-02-12T14:59:18;100229.30;;;4.68;65.78
56568;BME280;42456;49.956;20.004;2023-02-12T15:01:47;100225.62;;;4.61;65.73
56568;BME280;42456;49.956;20.004;2023-02-12T15:04:23;100231.64;;;4.55;65.88
56568;BME280;42456;49.956;20.004;2023-02-12T15:06:56;100231.97;;;4.48;65.94
56568;BME280;42456;49.956;20.004;2023-02-12T15:09:51;100235.15;;;4.42;65.77
56568;BME280;42456;49.956;20.004;2023-02-12T15:12:34;100238.66;;;4.35;65.66
56568;BME280;42456;49.956;20.004;2023-02-12T15:21:11;100245.52;;;4.13;65.72
56568;BME280;42456;49.956;20.004;2023-02-12T15:23:42;100245.30;;;4.07;66.12
56568;BME280;42456;49.956;20.004;2023-02-12T15:26:15;100247.26;;;4.01;66.53
56568;BME280;42456;49.956;20.004;2023-02-12T15:28:49;100249.10;;;3.94;67.42
56568;BME280;42456;49.956;20.004;2023-02-12T15:31:20;100250.55;;;3.87;67.26
56568;BME280;42456;49.956;20.004;2023-02-12T15:33:51;100253.89;;;3.80;68.07
56568;BME280;42456;49.956;20.004;2023-02-12T15:36:22;100257.11;;;3.74;68.17
56568;BME280;42456;49.956;20.004;2023-02-12T15:39:02;100259.46;;;3.66;68.74
56568;BME280;42456;49.956;20.004;2023-02-12T15:44:26;100256.11;;;3.56;69.50
56568;BME280;42456;49.956;20.004;2023-02-12T15:47:12;100257.55;;;3.51;69.37
56568;BME280;42456;49.956;20.004;2023-02-12T15:49:40;100263.89;;;3.47;69.94
56568;BME280;42456;49.956;20.004;2023-02-12T15:52:19;100270.40;;;3.43;70.15
56568;BME280;42456;49.956;20.004;2023-02-12T15:54:47;100276.58;;;3.38;70.39
56568;BME280;42456;49.956;20.004;2023-02-12T15:57:21;100283.19;;;3.34;70.42
56568;BME280;42456;49.956;20.004;2023-02-12T15:59:50;100287.89;;;3.27;70.54
56568;BME280;42456;49.956;20.004;2023-02-12T16:02:22;100290.83;;;3.21;70.95
56568;BME280;42456;49.956;20.004;2023-02-12T16:04:51;100284.80;;;3.14;71.15
56568;BME280;42456;49.956;20.004;2023-02-12T16:07:19;100290.58;;;3.06;71.40
56568;BME280;42456;49.956;20.004;2023-02-12T16:09:47;100291.20;;;2.99;71.69
56568;BME280;42456;49.956;20.004;2023-02-12T16:12:19;100290.11;;;2.91;71.65